sensor_id;sensor_type;location;lat;lon;timestamp;temperature;humidity
35635;DHT22;21757;43.610;1.440;2024-01-25T00:01:34;9.40;99.90
35635;DHT22;21757;43.610;1.440;2024-01-25T00:04:00;9.40;99.90
35635;DHT22;21757;43.610;1.440;2024-01-25T00:06:25;9.40;99.90
35635;DHT22;21757;43.610;1.440;2024-01-25T00:08:51;9.40;99.90
35635;DHT22;21757;43.610;1.440;2024-01-25T00:11:17;9.40;99.90
35635;DHT22;21757;43.610;1.440;2024-01-25T00:13:42;9.30;99.90
35635;DHT22;21757;43.610;1.440;2024-01-25T00:16:08;9.30;99.90
35635;DHT22;21757;43.610;1.440;2024-01-25T00:18:34;9.30;99.90
35635;DHT22;21757;43.610;1.440;2024-01-25T00:20:59;9.30;99.90
35635;DHT22;21757;43.610;1.440;2024-01-25T00:23:25;9.30;99.90
35635;DHT22;21757;43.610;1.440;2024-01-25T00:25:51;9.20;99.90
35635;DHT22;21757;43.610;1.440;2024-01-25T00:28:17;9.20;99.90
35635;DHT22;21757;43.610;1.440;2024-01-25T00:30:42;9.20;99.90
35635;DHT22;21757;43.610;1.440;2024-01-25T00:33:08;9.10;99.90
35635;DHT22;21757;43.610;1.440;2024-01-25T00:35:34;9.10;99.90
35635;DHT22;21757;43.610;1.440;2024-01-25T00:38:00;9.10;99.90
35635;DHT22;21757;43.610;1.440;2024-01-25T00:40:26;9.00;99.90
35635;DHT22;21757;43.610;1.440;2024-01-25T00:42:52;9.00;99.90
35635;DHT22;21757;43.610;1.440;2024-01-25T00:45:22;9.00;99.90
35635;DHT22;21757;43.610;1.440;2024-01-25T00:47:49;9.00;99.90
35635;DHT22;21757;43.610;1.440;2024-01-25T00:50:15;9.00;99.90
35635;DHT22;21757;43.610;1.440;2024-01-25T00:52:47;9.00;99.90
35635;DHT22;21757;43.610;1.440;2024-01-25T00:55:14;9.00;99.90
35635;DHT22;21757;43.610;1.440;2024-01-25T00:57:40;9.00;99.90
35635;DHT22;21757;43.610;1.440;2024-01-25T01:00:06;8.90;99.90
35635;DHT22;21757;43.610;1.440;2024-01-25T01:02:36;8.90;99.90
35635;DHT22;21757;43.610;1.440;2024-01-25T01:05:04;8.90;99.90
35635;DHT22;21757;43.610;1.440;2024-01-25T01:07:30;8.90;99.90
35635;DHT22;21757;43.610;1.440;2024-01-25T01:09:56;8.90;99.90
35635;DHT22;21757;43.610;1.440;2024-01-25T01:12:22;8.90;99.90
35635;DHT22;21757;43.610;1.440;2024-01-25T01:14:47;8.90;99.90
35635;DHT22;21757;43.610;1.440;2024-01-25T01:17:13;8.80;99.90
35635;DHT22;21757;43.610;1.440;2024-01-25T01:19:39;8.80;99.90
35635;DHT22;21757;43.610;1.440;2024-01-25T01:22:05;8.70;99.90
35635;DHT22;21757;43.610;1.440;2024-01-25T01:24:30;8.60;99.90
35635;DHT22;21757;43.610;1.440;2024-01-25T01:26:56;8.60;99.90
35635;DHT22;21757;43.610;1.440;2024-01-25T01:29:21;8.60;99.90
35635;DHT22;21757;43.610;1.440;2024-01-25T01:31:47;8.60;99.90
35635;DHT22;21757;43.610;1.440;2024-01-25T01:34:13;8.60;99.90
35635;DHT22;21757;43.610;1.440;2024-01-25T01:36:39;8.50;99.90
35635;DHT22;21757;43.610;1.440;2024-01-25T01:39:04;8.60;99.90
35635;DHT22;21757;43.610;1.440;2024-01-25T01:41:31;8.60;99.90
35635;DHT22;21757;43.610;1.440;2024-01-25T01:43:57;8.50;99.90
35635;DHT22;21757;43.610;1.440;2024-01-25T01:46:35;8.50;99.90
35635;DHT22;21757;43.610;1.440;2024-01-25T01:49:03;8.50;99.90
35635;DHT22;21757;43.610;1.440;2024-01-25T01:51:31;8.60;99.90
35635;DHT22;21757;43.610;1.440;2024-01-25T01:53:57;8.50;99.90
35635;DHT22;21757;43.610;1.440;2024-01-25T01:56:24;8.50;99.90
35635;DHT22;21757;43.610;1.440;2024-01-25T01:58:52;8.50;99.90
35635;DHT22;21757;43.610;1.440;2024-01-25T02:01:20;8.50;99.90
35635;DHT22;21757;43.610;1.440;2024-01-25T02:03:46;8.70;99.90
35635;DHT22;21757;43.610;1.440;2024-01-25T02:06:12;9.00;99.90
35635;DHT22;21757;43.610;1.440;2024-01-25T02:08:38;9.20;99.90
35635;DHT22;21757;43.610;1.440;2024-01-25T02:11:03;9.40;99.90
35635;DHT22;21757;43.610;1.440;2024-01-25T02:13:29;9.50;99.90
35635;DHT22;21757;43.610;1.440;2024-01-25T02:15:55;9.50;99.90
35635;DHT22;21757;43.610;1.440;2024-01-25T02:18:20;9.60;99.90
35635;DHT22;21757;43.610;1.440;2024-01-25T02:20:46;9.60;99.90
35635;DHT22;21757;43.610;1.440;2024-01-25T02:23:12;9.60;99.90
35635;DHT22;21757;43.610;1.440;2024-01-25T02:25:37;9.60;99.90
35635;DHT22;21757;43.610;1.440;2024-01-25T02:28:03;9.60;99.90
35635;DHT22;21757;43.610;1.440;2024-01-25T02:30:29;9.60;99.90
35635;DHT22;21757;43.610;1.440;2024-01-25T02:32:55;9.60;99.90
35635;DHT22;21757;43.610;1.440;2024-01-25T02:35:21;9.50;99.90
35635;DHT22;21757;43.610;1.440;2024-01-25T02:37:46;9.50;99.90
35635;DHT22;21757;43.610;1.440;2024-01-25T02:40:13;9.50;99.90
35635;DHT22;21757;43.610;1.440;2024-01-25T02:42:38;9.50;99.90
35635;DHT22;21757;43.610;1.440;2024-01-25T02:45:04;9.40;99.90
35635;DHT22;21757;43.610;1.440;2024-01-25T02:47:30;9.40;99.90
35635;DHT22;21757;43.610;1.440;2024-01-25T02:49:55;9.50;99.90
35635;DHT22;21757;43.610;1.440;2024-01-25T02:52:21;9.50;99.90
35635;DHT22;21757;43.610;1.440;2024-01-25T02:54:47;9.60;99.90
35635;DHT22;21757;43.610;1.440;2024-01-25T02:57:12;9.60;99.90
35635;DHT22;21757;43.610;1.440;2024-01-25T02:59:38;9.60;99.90
35635;DHT22;21757;43.610;1.440;2024-01-25T03:02:04;9.50;99.90
35635;DHT22;21757;43.610;1.440;2024-01-25T03:04:29;9.50;99.90
35635;DHT22;21757;43.610;1.440;2024-01-25T03:06:55;9.50;99.90
35635;DHT22;21757;43.610;1.440;2024-01-25T03:09:21;9.40;99.90
35635;DHT22;21757;43.610;1.440;2024-01-25T03:11:49;9.40;99.90
35635;DHT22;21757;43.610;1.440;2024-01-25T03:14:14;9.50;99.90
35635;DHT22;21757;43.610;1.440;2024-01-25T03:16:40;9.40;99.90
35635;DHT22;21757;43.610;1.440;2024-01-25T03:19:06;9.40;99.90
35635;DHT22;21757;43.610;1.440;2024-01-25T03:21:31;9.40;99.90
35635;DHT22;21757;43.610;1.440;2024-01-25T03:23:57;9.40;99.90
35635;DHT22;21757;43.610;1.440;2024-01-25T03:26:22;9.40;99.90
35635;DHT22;21757;43.610;1.440;2024-01-25T03:28:48;9.40;99.90
35635;DHT22;21757;43.610;1.440;2024-01-25T03:31:14;9.40;99.90
35635;DHT22;21757;43.610;1.440;2024-01-25T03:33:39;9.50;99.90
35635;DHT22;21757;43.610;1.440;2024-01-25T03:36:05;9.50;99.90
35635;DHT22;21757;43.610;1.440;2024-01-25T03:38:31;9.40;99.90
35635;DHT22;21757;43.610;1.440;2024-01-25T03:40:57;9.50;99.90
35635;DHT22;21757;43.610;1.440;2024-01-25T03:43:27;9.50;99.90
35635;DHT22;21757;43.610;1.440;2024-01-25T03:45:52;9.50;99.90
35635;DHT22;21757;43.610;1.440;2024-01-25T03:48:18;9.50;99.90
35635;DHT22;21757;43.610;1.440;2024-01-25T03:50:44;9.50;99.90
35635;DHT22;21757;43.610;1.440;2024-01-25T03:53:09;9.50;99.90
35635;DHT22;21757;43.610;1.440;2024-01-25T03:55:35;9.40;99.90
35635;DHT22;21757;43.610;1.440;2024-01-25T03:58:01;9.40;99.90
35635;DHT22;21757;43.610;1.440;2024-01-25T04:00:26;9.40;99.90
35635;DHT22;21757;43.610;1.440;2024-01-25T04:02:52;9.50;99.90
35635;DHT22;21757;43.610;1.440;2024-01-25T04:05:17;9.50;99.90
35635;DHT22;21757;43.610;1.440;2024-01-25T04:07:43;9.40;99.90
35635;DHT22;21757;43.610;1.440;2024-01-25T04:10:09;9.50;99.90
35635;DHT22;21757;43.610;1.440;2024-01-25T04:12:34;9.40;99.90
35635;DHT22;21757;43.610;1.440;2024-01-25T04:15:00;9.30;99.90
35635;DHT22;21757;43.610;1.440;2024-01-25T04:17:26;9.40;99.90
35635;DHT22;21757;43.610;1.440;2024-01-25T04:19:51;9.40;99.90
35635;DHT22;21757;43.610;1.440;2024-01-25T04:22:17;9.40;99.90
35635;DHT22;21757;43.610;1.440;2024-01-25T04:24:43;9.40;99.90
35635;DHT22;21757;43.610;1.440;2024-01-25T04:27:09;9.40;99.90
35635;DHT22;21757;43.610;1.440;2024-01-25T04:29:39;9.40;99.90
35635;DHT22;21757;43.610;1.440;2024-01-25T04:32:07;9.40;99.90
35635;DHT22;21757;43.610;1.440;2024-01-25T04:34:33;9.40;99.90
35635;DHT22;21757;43.610;1.440;2024-01-25T04:36:58;9.40;99.90
35635;DHT22;21757;43.610;1.440;2024-01-25T04:39:24;9.40;99.90
35635;DHT22;21757;43.610;1.440;2024-01-25T04:41:50;9.40;99.90
35635;DHT22;21757;43.610;1.440;2024-01-25T04:44:15;9.40;99.90
35635;DHT22;21757;43.610;1.440;2024-01-25T04:46:42;9.40;99.90
35635;DHT22;21757;43.610;1.440;2024-01-25T04:49:07;9.40;99.90
35635;DHT22;21757;43.610;1.440;2024-01-25T04:51:33;9.40;99.90
35635;DHT22;21757;43.610;1.440;2024-01-25T04:53:59;9.40;99.90
35635;DHT22;21757;43.610;1.440;2024-01-25T04:56:24;9.50;99.90
35635;DHT22;21757;43.610;1.440;2024-01-25T04:58:50;9.50;99.90
35635;DHT22;21757;43.610;1.440;2024-01-25T05:01:15;9.50;99.90
35635;DHT22;21757;43.610;1.440;2024-01-25T05:03:41;9.50;99.90
35635;DHT22;21757;43.610;1.440;2024-01-25T05:06:07;9.50;99.90
35635;DHT22;21757;43.610;1.440;2024-01-25T05:08:33;9.50;99.90
35635;DHT22;21757;43.610;1.440;2024-01-25T05:10:58;9.50;99.90
35635;DHT22;21757;43.610;1.440;2024-01-25T05:13:24;9.50;99.90
35635;DHT22;21757;43.610;1.440;2024-01-25T05:15:49;9.60;99.90
35635;DHT22;21757;43.610;1.440;2024-01-25T05:18:15;9.60;99.90
35635;DHT22;21757;43.610;1.440;2024-01-25T05:20:41;9.60;99.90
35635;DHT22;21757;43.610;1.440;2024-01-25T05:23:06;9.60;99.90
35635;DHT22;21757;43.610;1.440;2024-01-25T05:25:32;9.60;99.90
35635;DHT22;21757;43.610;1.440;2024-01-25T05:27:58;9.60;99.90
35635;DHT22;21757;43.610;1.440;2024-01-25T05:30:24;9.70;99.90
35635;DHT22;21757;43.610;1.440;2024-01-25T05:32:50;9.60;99.90
35635;DHT22;21757;43.610;1.440;2024-01-25T05:35:16;9.60;99.90
35635;DHT22;21757;43.610;1.440;2024-01-25T05:37:43;9.60;99.90
35635;DHT22;21757;43.610;1.440;2024-01-25T05:40:09;9.60;99.90
35635;DHT22;21757;43.610;1.440;2024-01-25T05:42:35;9.60;99.90
35635;DHT22;21757;43.610;1.440;2024-01-25T05:45:02;9.60;99.90
35635;DHT22;21757;43.610;1.440;2024-01-25T05:47:29;9.60;99.90
35635;DHT22;21757;43.610;1.440;2024-01-25T05:49:54;9.60;99.90
35635;DHT22;21757;43.610;1.440;2024-01-25T05:52:20;9.60;99.90
35635;DHT22;21757;43.610;1.440;2024-01-25T05:54:47;9.60;99.90
35635;DHT22;21757;43.610;1.440;2024-01-25T05:57:13;9.60;99.90
35635;DHT22;21757;43.610;1.440;2024-01-25T05:59:39;9.60;99.90
35635;DHT22;21757;43.610;1.440;2024-01-25T06:02:05;9.60;99.90
35635;DHT22;21757;43.610;1.440;2024-01-25T06:04:31;9.60;99.90
35635;DHT22;21757;43.610;1.440;2024-01-25T06:06:56;9.60;99.90
35635;DHT22;21757;43.610;1.440;2024-01-25T06:09:23;9.60;99.90
35635;DHT22;21757;43.610;1.440;2024-01-25T06:11:50;9.50;99.90
35635;DHT22;21757;43.610;1.440;2024-01-25T06:14:16;9.60;99.90
35635;DHT22;21757;43.610;1.440;2024-01-25T06:16:42;9.60;99.90
35635;DHT22;21757;43.610;1.440;2024-01-25T06:19:08;9.60;99.90
35635;DHT22;21757;43.610;1.440;2024-01-25T06:21:34;9.70;99.90
35635;DHT22;21757;43.610;1.440;2024-01-25T06:24:01;9.70;99.90
35635;DHT22;21757;43.610;1.440;2024-01-25T06:26:27;9.70;99.90
35635;DHT22;21757;43.610;1.440;2024-01-25T06:28:53;9.70;99.90
35635;DHT22;21757;43.610;1.440;2024-01-25T06:31:18;9.70;99.90
35635;DHT22;21757;43.610;1.440;2024-01-25T06:33:44;9.70;99.90
35635;DHT22;21757;43.610;1.440;2024-01-25T06:36:12;9.70;99.90
35635;DHT22;21757;43.610;1.440;2024-01-25T06:38:40;9.80;99.90
35635;DHT22;21757;43.610;1.440;2024-01-25T06:41:06;9.70;99.90
35635;DHT22;21757;43.610;1.440;2024-01-25T06:43:32;9.70;99.90
35635;DHT22;21757;43.610;1.440;2024-01-25T06:45:58;9.80;99.90
35635;DHT22;21757;43.610;1.440;2024-01-25T06:48:23;9.70;99.90
35635;DHT22;21757;43.610;1.440;2024-01-25T06:50:49;9.80;99.90
35635;DHT22;21757;43.610;1.440;2024-01-25T06:53:16;9.70;99.90
35635;DHT22;21757;43.610;1.440;2024-01-25T06:55:42;9.80;99.90
35635;DHT22;21757;43.610;1.440;2024-01-25T06:58:08;9.70;99.90
35635;DHT22;21757;43.610;1.440;2024-01-25T07:00:33;9.80;99.90
35635;DHT22;21757;43.610;1.440;2024-01-25T07:02:59;9.80;99.90
35635;DHT22;21757;43.610;1.440;2024-01-25T07:05:25;9.80;99.90
35635;DHT22;21757;43.610;1.440;2024-01-25T07:07:53;9.80;99.90
35635;DHT22;21757;43.610;1.440;2024-01-25T07:10:18;9.70;99.90
35635;DHT22;21757;43.610;1.440;2024-01-25T07:12:44;9.80;99.90
35635;DHT22;21757;43.610;1.440;2024-01-25T07:15:10;9.70;99.90
35635;DHT22;21757;43.610;1.440;2024-01-25T07:17:35;9.70;99.90
35635;DHT22;21757;43.610;1.440;2024-01-25T07:20:01;9.70;99.90
35635;DHT22;21757;43.610;1.440;2024-01-25T07:22:27;9.70;99.90
35635;DHT22;21757;43.610;1.440;2024-01-25T07:24:53;9.70;99.90
35635;DHT22;21757;43.610;1.440;2024-01-25T07:27:18;9.70;99.90
35635;DHT22;21757;43.610;1.440;2024-01-25T07:29:44;9.70;99.90
35635;DHT22;21757;43.610;1.440;2024-01-25T07:32:11;9.70;99.90
35635;DHT22;21757;43.610;1.440;2024-01-25T07:34:36;9.70;99.90
35635;DHT22;21757;43.610;1.440;2024-01-25T07:37:03;9.70;99.90
35635;DHT22;21757;43.610;1.440;2024-01-25T07:39:29;9.70;99.90
35635;DHT22;21757;43.610;1.440;2024-01-25T07:41:54;9.70;99.90
35635;DHT22;21757;43.610;1.440;2024-01-25T07:44:20;9.70;99.90
35635;DHT22;21757;43.610;1.440;2024-01-25T07:46:46;9.80;99.90
35635;DHT22;21757;43.610;1.440;2024-01-25T07:49:12;9.80;99.90
35635;DHT22;21757;43.610;1.440;2024-01-25T07:51:38;9.80;99.90
35635;DHT22;21757;43.610;1.440;2024-01-25T07:54:04;9.80;99.90
35635;DHT22;21757;43.610;1.440;2024-01-25T07:56:29;9.70;99.90
35635;DHT22;21757;43.610;1.440;2024-01-25T07:58:55;9.80;99.90
35635;DHT22;21757;43.610;1.440;2024-01-25T08:01:21;9.80;99.90
35635;DHT22;21757;43.610;1.440;2024-01-25T08:03:47;9.90;99.90
35635;DHT22;21757;43.610;1.440;2024-01-25T08:06:13;9.90;99.90
35635;DHT22;21757;43.610;1.440;2024-01-25T08:08:39;9.80;99.90
35635;DHT22;21757;43.610;1.440;2024-01-25T08:11:04;9.60;99.90
35635;DHT22;21757;43.610;1.440;2024-01-25T08:13:30;9.70;99.90
35635;DHT22;21757;43.610;1.440;2024-01-25T08:15:57;9.60;99.90
35635;DHT22;21757;43.610;1.440;2024-01-25T08:18:23;9.70;99.90
35635;DHT22;21757;43.610;1.440;2024-01-25T08:20:49;9.80;99.90
35635;DHT22;21757;43.610;1.440;2024-01-25T08:23:15;9.80;99.90
35635;DHT22;21757;43.610;1.440;2024-01-25T08:25:41;9.90;99.90
35635;DHT22;21757;43.610;1.440;2024-01-25T08:28:07;9.80;99.90
35635;DHT22;21757;43.610;1.440;2024-01-25T08:30:33;9.80;99.90
35635;DHT22;21757;43.610;1.440;2024-01-25T08:32:58;9.70;99.90
35635;DHT22;21757;43.610;1.440;2024-01-25T08:35:24;9.70;99.90
35635;DHT22;21757;43.610;1.440;2024-01-25T08:37:50;9.80;99.90
35635;DHT22;21757;43.610;1.440;2024-01-25T08:40:16;10.00;99.90
35635;DHT22;21757;43.610;1.440;2024-01-25T08:42:42;10.10;99.90
35635;DHT22;21757;43.610;1.440;2024-01-25T08:45:08;10.10;99.90
35635;DHT22;21757;43.610;1.440;2024-01-25T08:47:37;10.20;99.90
35635;DHT22;21757;43.610;1.440;2024-01-25T08:50:03;10.30;99.90
35635;DHT22;21757;43.610;1.440;2024-01-25T08:52:38;10.30;99.90
35635;DHT22;21757;43.610;1.440;2024-01-25T08:55:06;10.10;99.90
35635;DHT22;21757;43.610;1.440;2024-01-25T08:57:32;10.00;99.90
35635;DHT22;21757;43.610;1.440;2024-01-25T08:59:58;9.90;99.90
35635;DHT22;21757;43.610;1.440;2024-01-25T09:02:24;9.80;99.90
35635;DHT22;21757;43.610;1.440;2024-01-25T09:04:53;9.90;99.90
35635;DHT22;21757;43.610;1.440;2024-01-25T09:07:21;10.10;99.90
35635;DHT22;21757;43.610;1.440;2024-01-25T09:09:48;10.10;99.90
35635;DHT22;21757;43.610;1.440;2024-01-25T09:12:14;10.20;99.90
35635;DHT22;21757;43.610;1.440;2024-01-25T09:14:40;10.30;99.90
35635;DHT22;21757;43.610;1.440;2024-01-25T09:17:05;10.40;99.90
35635;DHT22;21757;43.610;1.440;2024-01-25T09:19:31;10.40;99.90
35635;DHT22;21757;43.610;1.440;2024-01-25T09:21:57;10.40;99.90
35635;DHT22;21757;43.610;1.440;2024-01-25T09:24:26;10.30;99.90
35635;DHT22;21757;43.610;1.440;2024-01-25T09:26:52;10.20;99.90
35635;DHT22;21757;43.610;1.440;2024-01-25T09:29:17;10.00;99.90
35635;DHT22;21757;43.610;1.440;2024-01-25T09:31:43;10.20;99.90
35635;DHT22;21757;43.610;1.440;2024-01-25T09:34:09;10.30;99.90
35635;DHT22;21757;43.610;1.440;2024-01-25T09:36:34;10.30;99.90
35635;DHT22;21757;43.610;1.440;2024-01-25T09:39:00;10.40;99.90
35635;DHT22;21757;43.610;1.440;2024-01-25T09:41:26;10.40;99.90
35635;DHT22;21757;43.610;1.440;2024-01-25T09:43:52;10.30;99.90
35635;DHT22;21757;43.610;1.440;2024-01-25T09:46:18;10.60;99.90
35635;DHT22;21757;43.610;1.440;2024-01-25T09:48:44;10.70;99.90
35635;DHT22;21757;43.610;1.440;2024-01-25T09:51:12;10.80;99.90
35635;DHT22;21757;43.610;1.440;2024-01-25T09:53:40;10.90;99.90
35635;DHT22;21757;43.610;1.440;2024-01-25T09:56:12;10.80;99.90
35635;DHT22;21757;43.610;1.440;2024-01-25T09:58:41;10.90;99.90
35635;DHT22;21757;43.610;1.440;2024-01-25T10:01:08;10.90;99.90
35635;DHT22;21757;43.610;1.440;2024-01-25T10:03:35;10.90;99.90
35635;DHT22;21757;43.610;1.440;2024-01-25T10:06:01;11.20;99.90
35635;DHT22;21757;43.610;1.440;2024-01-25T10:08:26;11.20;99.90
35635;DHT22;21757;43.610;1.440;2024-01-25T10:10:52;11.40;99.90
35635;DHT22;21757;43.610;1.440;2024-01-25T10:13:19;11.40;99.90
35635;DHT22;21757;43.610;1.440;2024-01-25T10:15:45;11.50;99.90
35635;DHT22;21757;43.610;1.440;2024-01-25T10:18:15;11.40;99.90
35635;DHT22;21757;43.610;1.440;2024-01-25T10:20:44;11.20;99.90
35635;DHT22;21757;43.610;1.440;2024-01-25T10:23:10;11.40;99.90
35635;DHT22;21757;43.610;1.440;2024-01-25T10:25:36;11.50;99.90
35635;DHT22;21757;43.610;1.440;2024-01-25T10:28:06;11.50;99.90
35635;DHT22;21757;43.610;1.440;2024-01-25T10:30:34;11.70;99.90
35635;DHT22;21757;43.610;1.440;2024-01-25T10:33:00;11.70;99.90
35635;DHT22;21757;43.610;1.440;2024-01-25T10:35:26;12.00;99.90
35635;DHT22;21757;43.610;1.440;2024-01-25T10:37:53;12.10;99.90
35635;DHT22;21757;43.610;1.440;2024-01-25T10:40:20;12.20;99.90
35635;DHT22;21757;43.610;1.440;2024-01-25T10:42:46;12.30;99.90
35635;DHT22;21757;43.610;1.440;2024-01-25T10:45:12;12.40;99.90
35635;DHT22;21757;43.610;1.440;2024-01-25T10:47:38;12.50;99.90
35635;DHT22;21757;43.610;1.440;2024-01-25T10:50:07;12.60;99.90
35635;DHT22;21757;43.610;1.440;2024-01-25T10:52:37;12.60;99.90
35635;DHT22;21757;43.610;1.440;2024-01-25T10:55:03;12.50;99.90
35635;DHT22;21757;43.610;1.440;2024-01-25T10:57:43;12.50;99.90
35635;DHT22;21757;43.610;1.440;2024-01-25T11:00:11;12.40;99.90
35635;DHT22;21757;43.610;1.440;2024-01-25T11:02:38;12.50;99.90
35635;DHT22;21757;43.610;1.440;2024-01-25T11:05:15;12.70;99.90
35635;DHT22;21757;43.610;1.440;2024-01-25T11:07:45;12.70;99.90
35635;DHT22;21757;43.610;1.440;2024-01-25T11:10:17;12.70;99.90
35635;DHT22;21757;43.610;1.440;2024-01-25T11:13:00;12.60;99.90
35635;DHT22;21757;43.610;1.440;2024-01-25T11:15:36;12.50;99.90
35635;DHT22;21757;43.610;1.440;2024-01-25T11:18:03;12.30;99.90
35635;DHT22;21757;43.610;1.440;2024-01-25T11:20:32;12.30;99.90
35635;DHT22;21757;43.610;1.440;2024-01-25T11:23:01;12.30;99.90
35635;DHT22;21757;43.610;1.440;2024-01-25T11:25:31;12.30;99.90
35635;DHT22;21757;43.610;1.440;2024-01-25T11:27:58;12.10;99.90
35635;DHT22;21757;43.610;1.440;2024-01-25T11:30:25;12.00;99.90
35635;DHT22;21757;43.610;1.440;2024-01-25T11:32:51;12.10;99.90
35635;DHT22;21757;43.610;1.440;2024-01-25T11:35:17;12.20;99.90
35635;DHT22;21757;43.610;1.440;2024-01-25T11:37:47;12.20;99.90
35635;DHT22;21757;43.610;1.440;2024-01-25T11:40:14;11.60;99.90
35635;DHT22;21757;43.610;1.440;2024-01-25T11:42:42;11.40;99.90
35635;DHT22;21757;43.610;1.440;2024-01-25T11:45:10;11.50;99.90
35635;DHT22;21757;43.610;1.440;2024-01-25T11:47:37;11.50;99.90
35635;DHT22;21757;43.610;1.440;2024-01-25T11:50:04;11.30;99.90
35635;DHT22;21757;43.610;1.440;2024-01-25T11:52:30;11.30;99.90
35635;DHT22;21757;43.610;1.440;2024-01-25T11:55:01;11.40;99.90
35635;DHT22;21757;43.610;1.440;2024-01-25T11:57:27;11.40;99.90
35635;DHT22;21757;43.610;1.440;2024-01-25T11:59:54;11.40;99.90
35635;DHT22;21757;43.610;1.440;2024-01-25T12:02:21;11.50;99.90
35635;DHT22;21757;43.610;1.440;2024-01-25T12:04:47;11.50;99.90
35635;DHT22;21757;43.610;1.440;2024-01-25T12:07:13;11.70;99.90
35635;DHT22;21757;43.610;1.440;2024-01-25T12:09:39;11.80;99.90
35635;DHT22;21757;43.610;1.440;2024-01-25T12:12:05;11.90;99.90
35635;DHT22;21757;43.610;1.440;2024-01-25T12:14:31;12.00;99.90
35635;DHT22;21757;43.610;1.440;2024-01-25T12:16:57;12.00;99.90
35635;DHT22;21757;43.610;1.440;2024-01-25T12:19:22;12.00;99.90
35635;DHT22;21757;43.610;1.440;2024-01-25T12:21:48;12.10;99.90
35635;DHT22;21757;43.610;1.440;2024-01-25T12:24:14;12.10;99.90
35635;DHT22;21757;43.610;1.440;2024-01-25T12:26:41;12.20;99.90
35635;DHT22;21757;43.610;1.440;2024-01-25T12:29:07;12.20;99.90
35635;DHT22;21757;43.610;1.440;2024-01-25T12:31:34;12.30;99.90
35635;DHT22;21757;43.610;1.440;2024-01-25T12:34:02;12.40;99.90
35635;DHT22;21757;43.610;1.440;2024-01-25T12:36:28;12.40;99.90
35635;DHT22;21757;43.610;1.440;2024-01-25T12:38:54;12.50;99.90
35635;DHT22;21757;43.610;1.440;2024-01-25T12:41:20;12.50;99.90
35635;DHT22;21757;43.610;1.440;2024-01-25T12:43:46;12.60;99.90
35635;DHT22;21757;43.610;1.440;2024-01-25T12:46:12;12.70;99.90
35635;DHT22;21757;43.610;1.440;2024-01-25T12:48:37;12.70;99.90
35635;DHT22;21757;43.610;1.440;2024-01-25T12:51:03;12.80;99.90
35635;DHT22;21757;43.610;1.440;2024-01-25T12:53:29;12.90;99.90
35635;DHT22;21757;43.610;1.440;2024-01-25T12:55:54;12.90;99.90
35635;DHT22;21757;43.610;1.440;2024-01-25T12:58:20;13.00;99.90
35635;DHT22;21757;43.610;1.440;2024-01-25T13:00:45;13.10;99.90
35635;DHT22;21757;43.610;1.440;2024-01-25T13:03:11;13.20;99.90
35635;DHT22;21757;43.610;1.440;2024-01-25T13:05:38;13.20;99.90
35635;DHT22;21757;43.610;1.440;2024-01-25T13:08:05;13.20;99.90
35635;DHT22;21757;43.610;1.440;2024-01-25T13:10:31;13.30;99.90
35635;DHT22;21757;43.610;1.440;2024-01-25T13:12:57;13.30;99.90
35635;DHT22;21757;43.610;1.440;2024-01-25T13:15:23;13.30;99.90
35635;DHT22;21757;43.610;1.440;2024-01-25T13:17:49;13.40;99.90
35635;DHT22;21757;43.610;1.440;2024-01-25T13:20:15;13.40;99.90
35635;DHT22;21757;43.610;1.440;2024-01-25T13:22:41;13.50;99.90
35635;DHT22;21757;43.610;1.440;2024-01-25T13:25:07;13.60;99.90
35635;DHT22;21757;43.610;1.440;2024-01-25T13:27:33;13.70;99.90
35635;DHT22;21757;43.610;1.440;2024-01-25T13:29:59;13.70;99.90
35635;DHT22;21757;43.610;1.440;2024-01-25T13:32:25;13.70;99.90
35635;DHT22;21757;43.610;1.440;2024-01-25T13:34:51;13.70;99.90
35635;DHT22;21757;43.610;1.440;2024-01-25T13:37:18;13.70;99.90
35635;DHT22;21757;43.610;1.440;2024-01-25T13:39:44;13.70;99.90
35635;DHT22;21757;43.610;1.440;2024-01-25T13:42:09;13.80;99.90
35635;DHT22;21757;43.610;1.440;2024-01-25T13:44:35;13.90;99.90
35635;DHT22;21757;43.610;1.440;2024-01-25T13:47:01;13.90;99.90
35635;DHT22;21757;43.610;1.440;2024-01-25T13:49:27;14.00;99.90
35635;DHT22;21757;43.610;1.440;2024-01-25T13:51:52;14.00;99.90
35635;DHT22;21757;43.610;1.440;2024-01-25T13:54:18;14.00;99.90
35635;DHT22;21757;43.610;1.440;2024-01-25T14:01:55;14.10;99.90
35635;DHT22;21757;43.610;1.440;2024-01-25T14:04:42;14.10;99.90
35635;DHT22;21757;43.610;1.440;2024-01-25T14:07:09;14.20;99.90
35635;DHT22;21757;43.610;1.440;2024-01-25T14:09:35;14.30;99.90
35635;DHT22;21757;43.610;1.440;2024-01-25T14:12:03;14.30;99.90
35635;DHT22;21757;43.610;1.440;2024-01-25T14:14:29;14.40;99.90
35635;DHT22;21757;43.610;1.440;2024-01-25T14:16:54;14.40;99.90
35635;DHT22;21757;43.610;1.440;2024-01-25T14:19:20;14.40;99.90
35635;DHT22;21757;43.610;1.440;2024-01-25T14:21:49;14.50;99.90
35635;DHT22;21757;43.610;1.440;2024-01-25T14:24:16;14.50;99.90
35635;DHT22;21757;43.610;1.440;2024-01-25T14:26:44;14.50;99.90
35635;DHT22;21757;43.610;1.440;2024-01-25T14:29:11;14.50;99.90
35635;DHT22;21757;43.610;1.440;2024-01-25T14:31:36;14.60;99.90
35635;DHT22;21757;43.610;1.440;2024-01-25T14:34:02;14.60;99.90
35635;DHT22;21757;43.610;1.440;2024-01-25T14:36:28;14.50;99.90
35635;DHT22;21757;43.610;1.440;2024-01-25T14:38:54;14.70;99.90
35635;DHT22;21757;43.610;1.440;2024-01-25T14:41:19;14.80;99.90
35635;DHT22;21757;43.610;1.440;2024-01-25T14:43:45;14.80;99.90
35635;DHT22;21757;43.610;1.440;2024-01-25T14:46:11;14.80;99.90
35635;DHT22;21757;43.610;1.440;2024-01-25T14:48:36;14.70;99.90
35635;DHT22;21757;43.610;1.440;2024-01-25T14:51:02;14.80;99.90
35635;DHT22;21757;43.610;1.440;2024-01-25T14:53:28;14.90;99.90
35635;DHT22;21757;43.610;1.440;2024-01-25T14:55:54;14.90;99.90
35635;DHT22;21757;43.610;1.440;2024-01-25T14:58:19;15.00;99.90
35635;DHT22;21757;43.610;1.440;2024-01-25T15:00:49;15.00;99.90
35635;DHT22;21757;43.610;1.440;2024-01-25T15:03:15;15.10;99.90
35635;DHT22;21757;43.610;1.440;2024-01-25T15:05:41;15.10;99.90
35635;DHT22;21757;43.610;1.440;2024-01-25T15:08:06;15.10;99.90
35635;DHT22;21757;43.610;1.440;2024-01-25T15:10:32;15.20;99.90
35635;DHT22;21757;43.610;1.440;2024-01-25T15:12:58;15.20;99.90
35635;DHT22;21757;43.610;1.440;2024-01-25T15:15:26;15.10;99.90
35635;DHT22;21757;43.610;1.440;2024-01-25T15:17:54;15.00;99.90
35635;DHT22;21757;43.610;1.440;2024-01-25T15:20:20;15.10;99.90
35635;DHT22;21757;43.610;1.440;2024-01-25T15:22:46;15.00;99.90
35635;DHT22;21757;43.610;1.440;2024-01-25T15:25:12;15.00;99.90
35635;DHT22;21757;43.610;1.440;2024-01-25T15:27:38;14.90;99.90
35635;DHT22;21757;43.610;1.440;2024-01-25T15:30:04;14.80;99.90
35635;DHT22;21757;43.610;1.440;2024-01-25T15:32:34;14.90;99.90
35635;DHT22;21757;43.610;1.440;2024-01-25T15:35:01;14.90;99.90
35635;DHT22;21757;43.610;1.440;2024-01-25T15:37:29;14.80;99.90
35635;DHT22;21757;43.610;1.440;2024-01-25T15:39:58;14.70;99.90